createdAt,value
2022-10-28T00:01:20.186Z,36.53
2022-10-28T00:03:56.885Z,32.60
2022-10-28T00:06:34.544Z,33.80
2022-10-28T00:09:05.564Z,31.58
2022-10-28T00:11:36.241Z,35.83
2022-10-28T00:14:07.205Z,34.55
2022-10-28T00:16:37.716Z,30.58
2022-10-28T00:19:07.662Z,29.55
2022-10-28T00:21:37.952Z,39.75
2022-10-28T00:24:07.221Z,34.40
2022-10-28T00:26:38.745Z,30.08
2022-10-28T00:29:15.346Z,34.92
2022-10-28T00:31:43.082Z,33.30
2022-10-28T00:34:13.950Z,34.38
2022-10-28T00:36:43.868Z,28.92
2022-10-28T00:39:19.174Z,27.75
2022-10-28T00:41:53.740Z,27.45
2022-10-28T00:44:39.630Z,31.83
2022-10-28T00:47:35.385Z,28.70
2022-10-28T00:50:24.447Z,31.07
2022-10-28T00:53:01.439Z,29.58
2022-10-28T00:55:30.210Z,28.60
2022-10-28T00:57:59.219Z,28.30
2022-10-28T01:00:26.872Z,31.73
2022-10-28T01:02:54.940Z,30.52
2022-10-28T01:05:28.127Z,29.35
2022-10-28T01:08:02.567Z,28.70
2022-10-28T01:10:59.404Z,34.05
2022-10-28T01:13:55.786Z,29.10
2022-10-28T01:16:47.025Z,32.03
2022-10-28T01:19:43.222Z,28.33
2022-10-28T01:23:09.192Z,33.28
2022-10-28T01:25:49.817Z,28.92
2022-10-28T01:29:03.421Z,33.45
2022-10-28T01:31:41.984Z,35.55
2022-10-28T01:34:27.060Z,32.83
2022-10-28T01:37:35.719Z,35.83
2022-10-28T01:40:32.219Z,33.85
2022-10-28T01:43:34.747Z,32.60
2022-10-28T01:46:28.986Z,34.13
2022-10-28T01:49:05.605Z,33.90
2022-10-28T01:51:41.136Z,34.30
2022-10-28T01:54:11.247Z,33.22
2022-10-28T01:56:41.923Z,32.25
2022-10-28T01:59:16.335Z,31.55
2022-10-28T02:01:43.570Z,36.92
2022-10-28T02:04:10.775Z,36.17
2022-10-28T02:06:41.023Z,32.53
2022-10-28T02:09:22.969Z,38.50
2022-10-28T02:12:17.263Z,27.55
2022-10-28T02:15:12.937Z,35.35
2022-10-28T02:18:52.953Z,38.03
2022-10-28T02:22:04.586Z,39.13
2022-10-28T02:25:06.463Z,36.92
2022-10-28T02:27:56.473Z,33.17
2022-10-28T02:30:29.260Z,35.92
2022-10-28T02:33:03.624Z,33.65
2022-10-28T02:35:52.778Z,35.65
2022-10-28T02:38:31.435Z,36.00
2022-10-28T02:41:04.902Z,38.55
2022-10-28T02:43:35.813Z,32.60
2022-10-28T02:46:04.729Z,31.58
2022-10-28T02:48:40.276Z,27.23
2022-10-28T02:51:36.859Z,31.67
2022-10-28T02:57:23.541Z,30.35
2022-10-28T03:00:05.222Z,30.52
2022-10-28T03:02:32.780Z,30.58
2022-10-28T03:04:59.814Z,25.30
2022-10-28T03:07:26.894Z,27.23
2022-10-28T03:09:53.910Z,26.27
2022-10-28T03:12:20.971Z,26.13
2022-10-28T03:14:48.041Z,26.33
2022-10-28T03:17:15.148Z,24.48
2022-10-28T03:19:42.222Z,27.30
2022-10-28T03:22:09.423Z,26.77
2022-10-28T03:24:36.562Z,23.27
2022-10-28T03:27:03.705Z,26.48
2022-10-28T03:29:30.788Z,24.00
2022-10-28T03:31:57.946Z,27.00
2022-10-28T03:34:25.011Z,23.50
2022-10-28T03:36:52.172Z,25.58
2022-10-28T03:39:19.327Z,24.33
2022-10-28T03:41:46.364Z,26.70
2022-10-28T03:44:13.405Z,25.95
2022-10-28T03:46:40.505Z,28.40
2022-10-28T03:49:07.574Z,31.95
2022-10-28T03:51:34.606Z,27.27
2022-10-28T03:54:01.743Z,26.90
2022-10-28T03:56:28.754Z,31.75
2022-10-28T03:58:55.878Z,24.23
2022-10-28T04:01:23.116Z,28.60
2022-10-28T04:03:50.228Z,22.25
2022-10-28T04:06:17.428Z,24.73
2022-10-28T04:08:44.501Z,27.23
2022-10-28T04:11:11.553Z,22.45
2022-10-28T04:13:38.592Z,23.55
2022-10-28T04:16:06.398Z,24.10
2022-10-28T04:18:35.437Z,24.08
2022-10-28T04:21:03.479Z,22.02
2022-10-28T04:23:30.760Z,22.88
2022-10-28T04:25:57.814Z,25.25
2022-10-28T04:28:24.844Z,23.73
2022-10-28T04:30:52.023Z,24.65
2022-10-28T04:33:19.132Z,22.63
2022-10-28T04:35:46.272Z,24.05
2022-10-28T04:38:14.445Z,22.95
2022-10-28T04:40:41.627Z,24.08
2022-10-28T04:43:10.200Z,22.50
2022-10-28T04:45:38.369Z,24.63
2022-10-28T04:48:06.186Z,27.67
2022-10-28T04:50:33.403Z,25.85
2022-10-28T04:53:00.858Z,26.60
2022-10-28T04:55:27.959Z,26.10
2022-10-28T04:58:00.779Z,25.55
2022-10-28T05:00:29.601Z,25.33
2022-10-28T05:02:57.323Z,25.70
2022-10-28T05:05:25.839Z,26.50
2022-10-28T05:07:53.169Z,27.63
2022-10-28T05:10:20.558Z,28.00
2022-10-28T05:12:47.687Z,25.45
2022-10-28T05:15:15.876Z,29.80
2022-10-28T05:17:47.518Z,29.42
2022-10-28T05:20:17.784Z,28.67
2022-10-28T05:22:54.120Z,27.73
2022-10-28T05:25:23.060Z,28.45
2022-10-28T05:27:50.777Z,33.15
2022-10-28T05:30:19.199Z,30.55
2022-10-28T05:32:48.283Z,33.67
2022-10-28T05:35:17.723Z,31.85
2022-10-28T05:37:44.761Z,30.17
2022-10-28T05:40:12.717Z,28.98
2022-10-28T05:42:43.459Z,28.17
2022-10-28T05:45:12.006Z,26.00
2022-10-28T05:47:48.867Z,30.50
2022-10-28T05:50:18.929Z,30.42
2022-10-28T05:52:51.699Z,27.80
2022-10-28T05:55:21.311Z,29.48
2022-10-28T05:57:50.790Z,33.13
2022-10-28T06:00:21.276Z,25.58
2022-10-28T06:02:48.986Z,31.77
2022-10-28T06:05:16.838Z,28.45
2022-10-28T06:07:44.185Z,29.80
2022-10-28T06:10:11.943Z,27.55
2022-10-28T06:12:38.254Z,29.95
2022-10-28T06:15:06.173Z,30.30
2022-10-28T06:17:33.333Z,29.65
2022-10-28T06:20:00.727Z,29.27
2022-10-28T06:22:28.062Z,30.20
2022-10-28T06:24:55.052Z,30.13
2022-10-28T06:27:22.153Z,34.78
2022-10-28T06:29:49.182Z,31.55
2022-10-28T06:32:16.293Z,29.70
2022-10-28T06:34:43.347Z,25.05
2022-10-28T06:37:10.482Z,28.30
2022-10-28T06:39:38.510Z,25.52
2022-10-28T06:42:05.675Z,27.83
2022-10-28T06:44:32.813Z,26.95
2022-10-28T06:47:01.470Z,27.40
2022-10-28T06:49:29.460Z,37.60
2022-10-28T06:51:56.596Z,28.25
2022-10-28T06:54:23.683Z,28.38
2022-10-28T06:56:50.929Z,31.50
2022-10-28T06:59:17.998Z,24.45
2022-10-28T07:01:45.220Z,22.55
2022-10-28T07:04:13.421Z,26.92
2022-10-28T07:06:41.102Z,25.80
2022-10-28T07:09:13.265Z,27.38
2022-10-28T07:11:43.713Z,32.28
2022-10-28T07:14:11.305Z,25.92
2022-10-28T07:16:38.349Z,25.25
2022-10-28T07:19:05.499Z,26.83
2022-10-28T07:21:32.536Z,30.15
2022-10-28T07:24:00.655Z,30.02
2022-10-28T07:26:28.016Z,32.33
2022-10-28T07:28:55.375Z,31.90
2022-10-28T07:31:22.718Z,33.45
2022-10-28T07:33:54.542Z,34.33
2022-10-28T07:36:22.066Z,29.20
2022-10-28T07:38:51.858Z,29.52
2022-10-28T07:41:21.344Z,29.92
2022-10-28T07:43:49.073Z,29.63
2022-10-28T07:46:17.446Z,27.02
2022-10-28T07:48:44.910Z,26.85
2022-10-28T07:51:15.053Z,32.20
2022-10-28T07:53:42.789Z,24.88
2022-10-28T07:56:15.469Z,26.45
2022-10-28T07:58:44.500Z,21.95
2022-10-28T08:01:15.362Z,25.00
2022-10-28T08:03:43.411Z,26.75
2022-10-28T08:06:17.399Z,23.40
2022-10-28T08:08:46.776Z,23.00
2022-10-28T08:11:16.648Z,20.77
2022-10-28T08:13:43.863Z,23.73
2022-10-28T08:16:11.607Z,24.17
2022-10-28T08:18:39.887Z,25.95
2022-10-28T08:21:09.898Z,22.60
2022-10-28T08:23:38.432Z,26.48
2022-10-28T08:26:05.908Z,22.10
2022-10-28T08:28:33.154Z,22.92
2022-10-28T08:31:09.924Z,27.85
2022-10-28T08:33:47.080Z,25.48
2022-10-28T08:36:16.780Z,21.67
2022-10-28T08:38:46.258Z,24.15
2022-10-28T08:42:17.827Z,25.92
2022-10-28T08:45:15.811Z,21.95
2022-10-28T08:47:49.759Z,21.85
2022-10-28T08:50:20.710Z,24.95
2022-10-28T08:52:58.862Z,24.30
2022-10-28T08:55:43.936Z,22.83
2022-10-28T08:58:26.620Z,24.20
2022-10-28T09:00:56.842Z,23.55
2022-10-28T09:03:33.368Z,22.83
2022-10-28T09:06:08.827Z,22.00
2022-10-28T09:08:42.316Z,21.58
2022-10-28T09:11:18.377Z,21.33
2022-10-28T09:14:00.289Z,20.95
2022-10-28T09:16:48.554Z,23.17
2022-10-28T09:19:55.982Z,18.48
2022-10-28T09:22:46.099Z,21.45
2022-10-28T09:25:48.862Z,20.90
2022-10-28T09:28:34.795Z,21.73
2022-10-28T09:31:19.477Z,22.60
2022-10-28T09:34:08.965Z,20.45
2022-10-28T09:36:42.841Z,20.92
2022-10-28T09:39:22.719Z,23.10
2022-10-28T09:41:53.844Z,24.73
2022-10-28T09:44:41.969Z,26.95
2022-10-28T09:47:25.245Z,24.77
2022-10-28T09:49:59.004Z,24.05
2022-10-28T09:52:33.376Z,23.63
2022-10-28T09:55:13.902Z,20.55
2022-10-28T09:57:41.011Z,31.80
2022-10-28T10:00:12.483Z,23.80
2022-10-28T10:02:40.404Z,27.30
2022-10-28T10:05:16.969Z,26.45
2022-10-28T10:07:57.872Z,24.73
2022-10-28T10:11:16.524Z,24.65
2022-10-28T10:13:45.401Z,25.67
2022-10-28T10:16:51.273Z,26.17
2022-10-28T10:19:18.476Z,25.95
2022-10-28T10:21:49.293Z,24.88
2022-10-28T10:24:26.458Z,25.35
2022-10-28T10:26:54.350Z,34.03
2022-10-28T10:29:22.541Z,27.65
2022-10-28T10:32:36.599Z,29.90
2022-10-28T10:35:19.263Z,24.35
2022-10-28T10:37:48.144Z,32.83
2022-10-28T10:40:26.447Z,29.55
2022-10-28T10:43:12.977Z,26.08
2022-10-28T10:45:41.963Z,27.83
2022-10-28T10:48:18.381Z,28.48
2022-10-28T10:50:50.348Z,26.95
2022-10-28T10:53:30.730Z,28.73
2022-10-28T10:56:08.739Z,28.23
2022-10-28T10:58:40.620Z,24.20
2022-10-28T11:01:09.661Z,30.17
2022-10-28T11:06:34.362Z,29.52
2022-10-28T11:09:17.920Z,30.35
2022-10-28T11:11:45.323Z,27.67
2022-10-28T11:14:14.919Z,32.30
2022-10-28T11:16:54.680Z,28.85
2022-10-28T11:19:33.063Z,33.75
2022-10-28T11:22:38.606Z,30.23
2022-10-28T11:25:45.351Z,29.70
2022-10-28T11:28:33.540Z,30.13
2022-10-28T11:31:18.671Z,32.10
2022-10-28T11:33:57.453Z,36.50
2022-10-28T11:36:51.748Z,35.72
2022-10-28T11:39:37.475Z,32.00
2022-10-28T11:42:25.454Z,34.05
2022-10-28T11:45:23.169Z,34.08
2022-10-28T11:48:14.902Z,34.08
2022-10-28T11:50:52.604Z,34.92
2022-10-28T11:53:47.629Z,33.50
2022-10-28T11:56:39.563Z,31.70
2022-10-28T11:59:40.308Z,32.10
2022-10-28T12:02:37.057Z,35.10
2022-10-28T12:05:41.775Z,33.28
2022-10-28T12:08:28.743Z,36.30
2022-10-28T12:11:46.793Z,39.53
2022-10-28T12:15:03.035Z,39.58
2022-10-28T12:17:49.485Z,43.05
2022-10-28T12:20:48.069Z,37.50
2022-10-28T12:23:21.362Z,35.45
2022-10-28T12:25:55.185Z,28.95
2022-10-28T12:28:43.791Z,27.50
2022-10-28T12:31:47.678Z,24.40
2022-10-28T12:34:24.673Z,26.90
2022-10-28T12:37:08.846Z,20.90
2022-10-28T12:39:56.855Z,20.20
2022-10-28T12:42:34.011Z,22.30
2022-10-28T12:45:06.864Z,19.38
2022-10-28T12:48:14.873Z,23.45
2022-10-28T12:51:07.970Z,20.65
2022-10-28T12:54:01.355Z,23.75
2022-10-28T12:56:40.547Z,25.20
2022-10-28T12:59:19.038Z,23.27
2022-10-28T13:01:49.509Z,21.98
2022-10-28T13:04:17.161Z,21.80
2022-10-28T13:07:17.369Z,19.00
2022-10-28T13:10:24.261Z,20.83
2022-10-28T13:13:18.516Z,21.77
2022-10-28T13:16:16.209Z,22.15
2022-10-28T13:19:24.953Z,27.00
2022-10-28T13:25:19.637Z,19.95
2022-10-28T13:27:47.366Z,20.83
2022-10-28T13:30:24.061Z,21.90
2022-10-28T13:33:15.531Z,23.30
2022-10-28T13:35:43.000Z,24.63
2022-10-28T13:38:13.230Z,31.55
2022-10-28T13:40:40.160Z,24.48
2022-10-28T13:43:41.369Z,23.10
2022-10-28T13:46:08.470Z,22.77
2022-10-28T13:48:42.582Z,23.25
2022-10-28T13:51:09.501Z,26.55
2022-10-28T13:53:45.067Z,24.08
2022-10-28T13:56:27.009Z,28.45
2022-10-28T13:59:13.682Z,27.42
2022-10-28T14:02:01.728Z,28.33
2022-10-28T14:04:39.523Z,30.40
2022-10-28T14:07:21.630Z,31.13
2022-10-28T14:09:53.553Z,31.38
2022-10-28T14:12:31.817Z,31.73
2022-10-28T14:15:38.997Z,26.10
2022-10-28T14:18:37.566Z,30.13
2022-10-28T14:21:01.785Z,26.95
2022-10-28T14:23:29.084Z,25.05
2022-10-28T14:25:56.333Z,27.38
2022-10-28T14:28:29.580Z,23.02
2022-10-28T14:31:20.959Z,32.30
2022-10-28T14:33:53.811Z,31.98
2022-10-28T14:36:20.728Z,31.45
2022-10-28T14:39:12.371Z,26.50
2022-10-28T14:42:00.842Z,29.83
2022-10-28T14:45:10.275Z,26.65
2022-10-28T14:47:50.144Z,24.88
2022-10-28T14:50:22.946Z,28.50
2022-10-28T14:52:53.747Z,25.33
2022-10-28T14:55:28.415Z,26.58
2022-10-28T14:58:27.389Z,30.73
2022-10-28T15:01:16.149Z,29.52
2022-10-28T15:03:53.454Z,28.63
2022-10-28T15:06:31.086Z,29.50
2022-10-28T15:09:09.237Z,28.50
2022-10-28T15:11:36.577Z,23.17
2022-10-28T15:14:24.803Z,27.55
2022-10-28T15:16:52.031Z,22.58
2022-10-28T15:19:26.831Z,22.85
2022-10-28T15:22:33.335Z,28.90
2022-10-28T15:25:02.686Z,28.33
2022-10-28T15:27:36.158Z,27.52
2022-10-28T15:30:20.888Z,24.75
2022-10-28T15:32:48.102Z,24.13
2022-10-28T15:35:42.394Z,26.52
2022-10-28T15:38:29.603Z,22.10
2022-10-28T15:40:57.593Z,27.35
2022-10-28T15:43:31.285Z,25.05
2022-10-28T15:46:16.439Z,22.30
2022-10-28T15:48:43.677Z,29.08
2022-10-28T15:51:17.146Z,28.45
2022-10-28T15:53:45.721Z,26.33
2022-10-28T15:56:20.044Z,25.98
2022-10-28T15:59:23.493Z,30.80
2022-10-28T16:01:51.082Z,29.92
2022-10-28T16:04:43.135Z,31.50
2022-10-28T16:07:10.343Z,33.67
2022-10-28T16:09:46.998Z,27.58
2022-10-28T16:12:21.026Z,28.90
2022-10-28T16:14:56.405Z,31.40
2022-10-28T16:17:35.802Z,30.67
2022-10-28T16:20:19.291Z,28.88
2022-10-28T16:22:47.202Z,32.92
2022-10-28T16:25:18.542Z,32.33
2022-10-28T16:27:45.662Z,31.83
2022-10-28T16:30:13.089Z,28.92
2022-10-28T16:32:44.510Z,26.42
2022-10-28T16:35:24.405Z,28.48
2022-10-28T16:37:55.483Z,30.00
2022-10-28T16:40:50.923Z,30.52
2022-10-28T16:43:20.011Z,25.60
2022-10-28T16:45:50.069Z,27.15
2022-10-28T16:48:19.330Z,27.17
2022-10-28T16:50:52.884Z,31.20
2022-10-28T16:53:20.747Z,28.00
2022-10-28T16:55:48.332Z,28.02
2022-10-28T16:58:16.024Z,30.92
2022-10-28T17:00:44.069Z,22.92
2022-10-28T17:03:15.637Z,26.73
2022-10-28T17:05:46.918Z,23.95
2022-10-28T17:08:15.844Z,26.38
2022-10-28T17:10:44.604Z,23.75
2022-10-28T17:13:15.574Z,24.90
2022-10-28T17:15:47.583Z,36.13
2022-10-28T17:18:15.168Z,27.00
2022-10-28T17:20:43.010Z,29.30
2022-10-28T17:23:10.442Z,26.80
2022-10-28T17:25:38.267Z,30.65
2022-10-28T17:28:05.666Z,29.80
2022-10-28T17:30:33.164Z,27.02
2022-10-28T17:33:02.088Z,31.05
2022-10-28T17:35:30.196Z,30.90
2022-10-28T17:37:58.152Z,31.67
2022-10-28T17:40:27.414Z,30.00
2022-10-28T17:42:59.193Z,30.70
2022-10-28T17:45:31.572Z,28.83
2022-10-28T17:48:00.248Z,30.23
2022-10-28T17:50:28.248Z,29.63
2022-10-28T17:52:56.287Z,30.77
2022-10-28T17:55:24.079Z,28.05
2022-10-28T17:57:51.563Z,35.38
2022-10-28T18:00:19.844Z,28.10
2022-10-28T18:02:47.331Z,31.23
2022-10-28T18:05:14.720Z,25.10
2022-10-28T18:07:42.085Z,26.08
2022-10-28T18:10:09.994Z,30.08
2022-10-28T18:12:37.671Z,28.02
2022-10-28T18:15:06.011Z,30.45
2022-10-28T18:17:33.516Z,28.58
2022-10-28T18:20:03.407Z,29.98
2022-10-28T18:22:32.013Z,25.70
2022-10-28T18:24:59.204Z,29.17
2022-10-28T18:27:29.581Z,29.27
2022-10-28T18:29:57.119Z,30.63
2022-10-28T18:32:24.315Z,29.38
2022-10-28T18:34:53.159Z,32.88
2022-10-28T18:37:21.187Z,29.38
2022-10-28T18:39:49.357Z,29.20
2022-10-28T18:42:22.006Z,27.95
2022-10-28T18:44:50.322Z,25.88
2022-10-28T18:47:18.324Z,28.42
2022-10-28T18:49:47.298Z,28.63
2022-10-28T18:52:14.715Z,29.10
2022-10-28T18:54:42.452Z,30.27
2022-10-28T18:57:10.178Z,27.85
2022-10-28T18:59:52.396Z,27.90
2022-10-28T19:02:26.322Z,27.70
2022-10-28T19:04:54.240Z,38.60
2022-10-28T19:07:22.085Z,30.77
2022-10-28T19:09:49.547Z,31.98
2022-10-28T19:12:16.972Z,34.78
2022-10-28T19:14:44.629Z,33.45
2022-10-28T19:17:12.826Z,36.38
2022-10-28T19:19:40.292Z,36.22
2022-10-28T19:22:08.506Z,44.30
2022-10-28T19:24:35.825Z,35.67
2022-10-28T19:27:04.828Z,39.67
2022-10-28T19:29:32.324Z,35.55
2022-10-28T19:31:59.620Z,31.73
2022-10-28T19:34:28.283Z,38.97
2022-10-28T19:36:55.826Z,39.50
2022-10-28T19:39:23.375Z,35.33
2022-10-28T19:41:51.135Z,44.60
2022-10-28T19:44:21.096Z,37.05
2022-10-28T19:46:51.884Z,36.72
2022-10-28T19:49:22.426Z,39.65
2022-10-28T19:51:53.848Z,34.67
2022-10-28T19:54:21.229Z,37.15
2022-10-28T19:56:49.636Z,44.47
2022-10-28T19:59:17.174Z,36.38
2022-10-28T20:01:44.724Z,37.20
2022-10-28T20:04:12.207Z,37.42
2022-10-28T20:06:43.380Z,46.65
2022-10-28T20:09:10.816Z,41.58
2022-10-28T20:11:39.504Z,43.97
2022-10-28T20:14:13.137Z,41.72
2022-10-28T20:16:42.947Z,37.10
2022-10-28T20:19:11.186Z,35.85
2022-10-28T20:21:39.544Z,40.58
2022-10-28T20:24:08.269Z,35.00
2022-10-28T20:26:38.559Z,40.67
2022-10-28T20:29:10.027Z,39.00
2022-10-28T20:31:39.027Z,45.22
2022-10-28T20:34:07.295Z,40.58
2022-10-28T20:36:40.943Z,40.33
2022-10-28T20:39:14.050Z,41.00
2022-10-28T20:41:43.635Z,36.63
2022-10-28T20:44:11.845Z,39.80
2022-10-28T20:46:39.468Z,44.30
2022-10-28T20:49:10.878Z,43.78
2022-10-28T20:51:37.985Z,45.97
2022-10-28T20:54:05.775Z,39.28
2022-10-28T20:56:36.605Z,42.88
2022-10-28T20:59:04.793Z,47.05
2022-10-28T21:01:36.167Z,41.03
2022-10-28T21:04:07.602Z,41.50
2022-10-28T21:06:36.484Z,42.72
2022-10-28T21:09:05.316Z,41.47
2022-10-28T21:11:32.659Z,43.55
2022-10-28T21:14:01.287Z,40.55
2022-10-28T21:16:29.912Z,45.22
2022-10-28T21:18:57.579Z,50.83
2022-10-28T21:21:24.879Z,41.10
2022-10-28T21:23:52.715Z,47.58
2022-10-28T21:26:20.287Z,39.35
2022-10-28T21:28:52.608Z,44.70
2022-10-28T21:31:21.237Z,47.95
2022-10-28T21:36:19.767Z,56.75
2022-10-28T21:38:46.877Z,50.70
2022-10-28T21:41:17.419Z,55.45
2022-10-28T21:43:50.469Z,47.17
2022-10-28T21:46:19.986Z,47.72
2022-10-28T21:48:47.657Z,53.35
2022-10-28T21:51:17.333Z,44.72
2022-10-28T21:53:45.398Z,50.38
2022-10-28T21:56:18.102Z,47.38
2022-10-28T21:58:50.256Z,46.08
2022-10-28T22:01:21.310Z,43.22
2022-10-28T22:03:49.295Z,43.75
2022-10-28T22:06:16.454Z,44.65
2022-10-28T22:08:43.515Z,54.50
2022-10-28T22:11:15.553Z,49.35
2022-10-28T22:13:44.004Z,41.85
2022-10-28T22:16:15.417Z,41.17
2022-10-28T22:18:43.174Z,44.47
2022-10-28T22:21:24.360Z,44.35
2022-10-28T22:23:52.072Z,39.20
2022-10-28T22:26:22.427Z,43.10
2022-10-28T22:28:50.577Z,37.72
2022-10-28T22:31:20.996Z,43.90
2022-10-28T22:33:48.855Z,36.35
2022-10-28T22:36:25.912Z,37.72
2022-10-28T22:38:53.324Z,43.88
2022-10-28T22:41:24.226Z,36.13
2022-10-28T22:44:02.249Z,38.60
2022-10-28T22:46:32.169Z,38.83
2022-10-28T22:48:59.607Z,39.80
2022-10-28T22:51:26.783Z,42.95
2022-10-28T22:53:54.083Z,38.15
2022-10-28T22:56:24.274Z,40.60
2022-10-28T22:58:57.405Z,43.83
2022-10-28T23:01:26.418Z,36.67
2022-10-28T23:03:54.820Z,45.17
2022-10-28T23:06:25.749Z,43.90
2022-10-28T23:08:54.513Z,42.03
2022-10-28T23:11:23.114Z,38.83
2022-10-28T23:13:52.842Z,43.53
2022-10-28T23:16:20.779Z,46.92
2022-10-28T23:18:53.034Z,42.17
2022-10-28T23:21:24.279Z,40.42
2022-10-28T23:23:59.703Z,46.22
2022-10-28T23:26:29.051Z,34.63
2022-10-28T23:28:59.113Z,42.60
2022-10-28T23:31:27.307Z,38.78
2022-10-28T23:33:55.522Z,38.55
2022-10-28T23:36:23.221Z,42.28
2022-10-28T23:38:50.340Z,39.08
2022-10-28T23:41:18.939Z,38.10
2022-10-28T23:43:47.570Z,39.45
2022-10-28T23:46:14.773Z,43.03
2022-10-28T23:48:41.815Z,34.67
2022-10-28T23:51:09.415Z,40.53
2022-10-28T23:53:36.507Z,42.10
2022-10-28T23:56:03.868Z,50.35
2022-10-28T23:58:30.912Z,41.03
